< < Back
Terminal Aerodrome Forecast


Current Version              Previous Versions:   1  2  3  4  5  6  7  8  9  

Terminal Aerodrome Forecast

394
FTUS42 KTAE 292320
TAFTLH
TAF
KTLH 292320Z 3000/3024 00000KT P6SM FEW080
     FM301400 33005KT P6SM SCT040
     FM301900 34007KT P6SM VCTS SCT060CB=

Latest METAR

329
SAUS80 KWBC 301000 RRB
MTRTLH
METAR KTLH 300953Z 22003KT 10SM FEW250 21/19 A2998 RMK AO2 SLP152 FIRST
AUGMENTED OBS T02110194


USA.gov is the U.S. government's official web portal to all federal, state and local government web resources and services.